createdAt,value
2022-08-05T00:04:34.683Z,5.78
2022-08-05T00:09:42.471Z,3.97
2022-08-05T00:14:51.892Z,3.30
2022-08-05T00:20:02.634Z,4.63
2022-08-05T00:25:12.764Z,2.72
2022-08-05T00:30:17.799Z,4.82
2022-08-05T00:35:22.781Z,3.88
2022-08-05T00:40:51.969Z,5.18
2022-08-05T00:45:58.397Z,3.42
2022-08-05T00:51:08.961Z,3.45
2022-08-05T00:56:31.269Z,7.10
2022-08-05T01:01:48.539Z,8.32
2022-08-05T01:06:55.065Z,4.05
2022-08-05T01:12:17.843Z,4.65
2022-08-05T01:17:32.427Z,5.50
2022-08-05T01:22:57.670Z,3.13
2022-08-05T01:28:18.401Z,4.75
2022-08-05T01:33:35.160Z,5.00
2022-08-05T01:38:41.256Z,3.95
2022-08-05T01:43:51.370Z,5.50
2022-08-05T01:48:59.664Z,4.15
2022-08-05T01:54:07.210Z,3.28
2022-08-05T01:59:22.961Z,3.42
2022-08-05T02:04:30.211Z,5.10
2022-08-05T02:09:35.282Z,3.72
2022-08-05T02:14:47.935Z,5.30
2022-08-05T02:20:01.354Z,6.90
2022-08-05T02:25:12.655Z,5.07
2022-08-05T02:30:21.996Z,4.22
2022-08-05T02:35:37.443Z,4.90
2022-08-05T02:40:46.339Z,3.33
2022-08-05T02:45:55.984Z,4.97
2022-08-05T02:51:07.003Z,7.10
2022-08-05T02:56:15.942Z,5.13
2022-08-05T03:01:28.006Z,7.13
2022-08-05T03:06:55.331Z,6.20
2022-08-05T03:11:59.020Z,8.07
2022-08-05T03:17:09.377Z,8.30
2022-08-05T03:22:16.656Z,5.13
2022-08-05T03:27:29.601Z,8.20
2022-08-05T03:32:48.372Z,6.40
2022-08-05T03:37:53.574Z,5.97
2022-08-05T03:42:58.644Z,4.47
2022-08-05T03:48:06.516Z,12.33
2022-08-05T03:55:52.519Z,5.07
2022-08-05T03:58:46.415Z,5.43
2022-08-05T04:04:09.877Z,7.37
2022-08-05T04:09:26.449Z,7.50
2022-08-05T04:14:34.331Z,6.77
2022-08-05T04:19:55.511Z,6.30
2022-08-05T04:25:04.067Z,8.07
2022-08-05T04:30:10.959Z,6.60
2022-08-05T04:35:21.538Z,7.97
2022-08-05T04:40:28.169Z,5.90
2022-08-05T04:45:48.553Z,6.95
2022-08-05T04:51:03.813Z,8.40
2022-08-05T04:56:34.280Z,6.45
2022-08-05T05:02:06.711Z,5.57
2022-08-05T05:07:09.389Z,9.25
2022-08-05T05:12:14.873Z,8.00
2022-08-05T05:17:23.879Z,13.50
2022-08-05T05:22:31.895Z,11.70
2022-08-05T05:27:44.525Z,10.38
2022-08-05T05:32:51.114Z,10.43
2022-08-05T05:38:02.410Z,7.72
2022-08-05T05:43:08.716Z,11.23
2022-08-05T05:48:16.015Z,8.35
2022-08-05T05:53:23.924Z,14.77
2022-08-05T05:58:32.591Z,9.57
2022-08-05T06:03:54.103Z,5.95
2022-08-05T06:09:05.223Z,6.55
2022-08-05T06:14:10.514Z,7.13
2022-08-05T06:19:33.013Z,3.97
2022-08-05T06:24:48.327Z,4.38
2022-08-05T06:30:04.314Z,5.50
2022-08-05T06:35:15.403Z,5.60
2022-08-05T06:40:32.441Z,5.65
2022-08-05T06:46:02.872Z,4.30
2022-08-05T06:51:02.900Z,6.45
2022-08-05T06:56:26.509Z,6.60
2022-08-05T07:01:32.931Z,3.38
2022-08-05T07:06:40.173Z,3.55
2022-08-05T07:11:51.548Z,4.43
2022-08-05T07:17:56.618Z,4.43
2022-08-05T07:22:27.727Z,4.28
2022-08-05T07:28:01.460Z,5.05
2022-08-05T07:33:05.359Z,2.80
2022-08-05T07:38:32.739Z,6.57
2022-08-05T07:43:42.069Z,5.03
2022-08-05T07:49:03.505Z,4.40
2022-08-05T07:54:12.741Z,5.25
2022-08-05T07:59:23.272Z,5.00
2022-08-05T08:04:45.113Z,5.35
2022-08-05T08:09:52.490Z,8.05
2022-08-05T08:15:02.561Z,8.00
2022-08-05T08:20:43.531Z,4.80
2022-08-05T08:25:58.921Z,5.63
2022-08-05T08:31:04.351Z,7.57
2022-08-05T08:36:29.451Z,9.27
2022-08-05T08:41:51.873Z,5.82
2022-08-05T08:47:22.351Z,13.80
2022-08-05T08:52:38.444Z,4.28
2022-08-05T08:57:48.536Z,5.25
2022-08-05T09:03:09.470Z,7.20
2022-08-05T09:08:14.397Z,4.25
2022-08-05T09:13:23.609Z,9.73
2022-08-05T09:18:31.446Z,6.60
2022-08-05T09:23:43.608Z,10.05
2022-08-05T09:28:52.691Z,7.90
2022-08-05T09:34:02.823Z,10.55
2022-08-05T09:39:18.239Z,4.28
2022-08-05T09:44:37.873Z,6.85
2022-08-05T09:50:00.909Z,6.28
2022-08-05T09:55:56.197Z,4.53
2022-08-05T10:00:38.786Z,6.22
2022-08-05T10:05:48.946Z,15.40
2022-08-05T10:10:55.004Z,9.13
2022-08-05T10:16:00.852Z,5.20
2022-08-05T10:21:15.553Z,5.68
2022-08-05T10:26:31.532Z,8.43
2022-08-05T10:32:53.917Z,8.30
2022-08-05T10:37:05.234Z,6.43
2022-08-05T10:42:15.590Z,7.15
2022-08-05T10:47:26.756Z,4.57
2022-08-05T10:52:58.800Z,5.38
2022-08-05T10:58:11.661Z,7.45
2022-08-05T11:03:23.042Z,6.10
2022-08-05T11:08:37.962Z,11.93
2022-08-05T11:13:57.611Z,7.20
2022-08-05T11:20:10.797Z,5.45
2022-08-05T11:26:04.941Z,9.82
2022-08-05T11:31:53.990Z,11.75
2022-08-05T11:36:54.067Z,16.80
2022-08-05T11:42:04.260Z,7.13
2022-08-05T11:47:15.172Z,6.45
2022-08-05T11:52:31.127Z,6.03
2022-08-05T11:58:08.237Z,8.73
2022-08-05T12:03:29.610Z,5.22
2022-08-05T12:08:48.022Z,4.85
2022-08-05T12:14:04.111Z,3.83
2022-08-05T12:20:26.979Z,5.35
2022-08-05T12:24:49.565Z,7.00
2022-08-05T12:30:03.589Z,7.78
2022-08-05T12:35:14.060Z,4.43
2022-08-05T12:40:30.992Z,4.15
2022-08-05T12:45:48.350Z,4.47
2022-08-05T12:51:21.790Z,3.20
2022-08-05T12:56:47.053Z,5.72
2022-08-05T13:02:07.162Z,3.45
2022-08-05T13:07:16.185Z,4.93
2022-08-05T13:12:28.522Z,5.60
2022-08-05T13:17:41.780Z,2.60
2022-08-05T13:22:52.145Z,4.70
2022-08-05T13:27:59.797Z,8.35
2022-08-05T13:33:04.825Z,5.45
2022-08-05T13:38:15.729Z,4.55
2022-08-05T13:43:44.271Z,7.07
2022-08-05T13:48:58.834Z,5.10
2022-08-05T13:54:12.579Z,5.25
2022-08-05T13:59:24.778Z,5.22
2022-08-05T14:04:50.085Z,9.38
2022-08-05T14:09:56.391Z,3.30
2022-08-05T14:15:05.915Z,4.75
2022-08-05T14:20:29.715Z,3.03
2022-08-05T14:25:34.764Z,3.88
2022-08-05T14:30:53.535Z,5.60
2022-08-05T14:35:58.515Z,7.45
2022-08-05T14:41:10.057Z,4.72
2022-08-05T14:46:17.645Z,4.05
2022-08-05T14:51:25.009Z,4.60
2022-08-05T14:56:35.829Z,4.40
2022-08-05T15:01:48.970Z,4.05
2022-08-05T15:06:54.672Z,4.20
2022-08-05T15:12:00.327Z,4.70
2022-08-05T15:17:44.503Z,3.30
2022-08-05T15:22:39.055Z,2.80
2022-08-05T15:27:52.307Z,5.35
2022-08-05T15:33:00.073Z,4.25
2022-08-05T15:38:33.253Z,5.32
2022-08-05T15:43:31.895Z,3.55
2022-08-05T15:48:58.006Z,3.15
2022-08-05T15:54:08.447Z,2.25
2022-08-05T15:59:21.774Z,2.65
2022-08-05T16:04:29.995Z,3.60
2022-08-05T16:09:36.407Z,7.20
2022-08-05T16:14:41.484Z,3.03
2022-08-05T16:20:05.322Z,4.72
2022-08-05T16:25:14.052Z,3.00
2022-08-05T16:30:26.097Z,3.95
2022-08-05T16:35:42.086Z,3.58
2022-08-05T16:40:55.028Z,3.17
2022-08-05T16:46:23.716Z,9.60
2022-08-05T16:51:50.237Z,4.75
2022-08-05T16:56:56.281Z,2.55
2022-08-05T17:02:01.166Z,7.45
2022-08-05T17:07:11.497Z,4.45
2022-08-05T17:12:16.706Z,4.03
2022-08-05T17:18:02.201Z,5.22
2022-08-05T17:23:00.839Z,4.72
2022-08-05T17:28:09.320Z,3.03
2022-08-05T17:33:15.112Z,5.53
2022-08-05T17:38:22.751Z,5.60
2022-08-05T17:43:50.384Z,3.17
2022-08-05T17:48:55.550Z,6.22
2022-08-05T17:54:05.288Z,3.28
2022-08-05T17:59:10.528Z,5.75
2022-08-05T18:04:15.503Z,27.75
2022-08-05T18:10:00.465Z,33.22
2022-08-05T18:14:54.364Z,21.10
2022-08-05T18:19:59.368Z,15.38
2022-08-05T18:25:08.595Z,9.95
2022-08-05T18:30:17.573Z,12.27
2022-08-05T18:35:28.389Z,7.70
2022-08-05T18:41:57.641Z,6.43
2022-08-05T18:46:15.901Z,7.57
2022-08-05T18:52:03.212Z,6.50
2022-08-05T18:57:06.553Z,4.05
2022-08-05T19:02:27.708Z,6.75
2022-08-05T19:07:45.191Z,6.40
2022-08-05T19:12:53.009Z,7.63
2022-08-05T19:18:10.334Z,7.97
2022-08-05T19:24:05.996Z,5.05
2022-08-05T19:28:44.072Z,7.03
2022-08-05T19:33:56.238Z,7.40
2022-08-05T19:39:02.245Z,8.23
2022-08-05T19:44:13.797Z,5.88
2022-08-05T19:49:19.118Z,7.47
2022-08-05T19:54:31.304Z,10.10
2022-08-05T19:59:55.225Z,8.65
2022-08-05T20:05:09.456Z,9.07
2022-08-05T20:10:14.817Z,11.82
2022-08-05T20:15:52.265Z,6.60
2022-08-05T20:20:50.072Z,8.13
2022-08-05T20:25:55.185Z,4.65
2022-08-05T20:31:02.692Z,7.43
2022-08-05T20:36:07.818Z,4.72
2022-08-05T20:41:23.674Z,3.88
2022-08-05T20:46:32.420Z,8.55
2022-08-05T20:51:37.321Z,3.15
2022-08-05T20:56:43.575Z,2.60
2022-08-05T21:01:52.118Z,3.55
2022-08-05T21:06:57.102Z,3.80
2022-08-05T21:12:09.458Z,1.50
2022-08-05T21:17:18.755Z,3.85
2022-08-05T21:22:26.879Z,2.10
2022-08-05T21:27:38.783Z,1.80
2022-08-05T21:32:46.591Z,4.03
2022-08-05T21:37:53.076Z,1.70
2022-08-05T21:42:59.026Z,1.17
2022-08-05T21:48:08.098Z,2.17
2022-08-05T21:53:16.694Z,1.57
2022-08-05T21:58:31.484Z,1.47
2022-08-05T22:03:51.970Z,5.70
2022-08-05T22:08:58.232Z,1.60
2022-08-05T22:14:33.326Z,3.90
2022-08-05T22:20:01.265Z,1.37
2022-08-05T22:25:20.986Z,3.50
2022-08-05T22:30:35.866Z,1.73
2022-08-05T22:35:49.304Z,3.37
2022-08-05T22:40:54.894Z,2.27
2022-08-05T22:46:00.302Z,2.40
2022-08-05T22:51:22.365Z,7.67
2022-08-05T22:56:30.693Z,4.33
2022-08-05T23:02:03.887Z,3.17
2022-08-05T23:07:04.393Z,4.23
2022-08-05T23:12:12.272Z,5.37
2022-08-05T23:17:34.656Z,2.40
2022-08-05T23:22:47.612Z,5.87
2022-08-05T23:28:00.205Z,6.63
2022-08-05T23:33:05.883Z,3.63
2022-08-05T23:38:26.706Z,4.57
2022-08-05T23:44:04.614Z,3.40
2022-08-05T23:48:59.667Z,3.97
2022-08-05T23:54:10.708Z,2.70
2022-08-05T23:59:16.314Z,9.43
